Time;durP1;ratioP1;P1;durP2;ratioP2;P2;SDS_P1;SDS_P2;PMS_P1;PMS_P2;Temp;Humidity;BMP_temperature;BMP_pressure;BME280_temperature;BME280_humidity;BME280_pressure;Samples;Min_cycle;Max_cycle;Signal;HPM_P1;HPM_P2
2021/11/05 00:02:29;;;;;;;17.62;5.35;;;;;;;10.93;46.25;101301.37;4422771;32;20111;-69
2021/11/05 00:04:55;;;;;;;16.50;6.78;;;;;;;11.00;46.25;101299.25;4423059;32;20081;-69
2021/11/05 00:07:21;;;;;;;15.10;5.68;;;;;;;11.00;46.27;101302.06;4419332;32;20026;-69
2021/11/05 00:09:46;;;;;;;16.95;5.90;;;;;;;10.87;46.54;101298.25;4419078;32;20053;-69
2021/11/05 00:12:32;;;;;;;15.13;5.22;;;;;;;11.02;46.17;101310.84;4421099;32;20084;-69
2021/11/05 00:15:17;;;;;;;14.77;5.05;;;;;;;11.03;46.28;101311.66;4419160;32;20161;-69
2021/11/05 00:17:43;;;;;;;12.80;5.03;;;;;;;11.02;46.37;101301.63;4421523;32;20414;-69
2021/11/05 00:20:10;;;;;;;14.60;4.78;;;;;;;11.07;46.41;101298.31;4424583;32;20375;-69
2021/11/05 00:22:36;;;;;;;11.63;3.92;;;;;;;11.10;46.33;101303.09;4419875;32;20069;-69
2021/11/05 00:25:06;;;;;;;8.23;3.83;;;;;;;11.04;46.22;101299.97;4420866;32;20069;-69
2021/11/05 00:27:33;;;;;;;8.63;3.33;;;;;;;11.14;46.06;101303.84;4420592;32;20065;-69
2021/11/05 00:29:59;;;;;;;10.35;4.68;;;;;;;11.02;46.08;101293.97;4421414;32;20038;-69
2021/11/05 00:32:25;;;;;;;10.77;4.03;;;;;;;10.89;46.17;101297.84;4421193;32;20156;-69
2021/11/05 00:34:51;;;;;;;8.77;3.30;;;;;;;11.07;46.00;101301.13;4420945;32;20419;-69
2021/11/05 00:37:16;;;;;;;9.82;3.65;;;;;;;10.81;45.94;101305.59;4418113;32;20379;-69
2021/11/05 00:39:42;;;;;;;9.45;4.00;;;;;;;10.88;45.97;101304.66;4421056;32;20072;-69
2021/11/05 00:42:08;;;;;;;9.95;3.60;;;;;;;10.88;46.06;101297.03;4421894;32;20081;-69
2021/11/05 00:44:34;;;;;;;10.13;3.03;;;;;;;10.79;46.20;101301.59;4422831;32;20116;-69
2021/11/05 00:47:00;;;;;;;12.37;3.45;;;;;;;10.70;46.55;101304.97;4421095;32;20042;-69
2021/11/05 00:49:25;;;;;;;6.35;2.83;;;;;;;10.77;46.28;101298.44;4421382;32;20041;-69
2021/11/05 00:51:51;;;;;;;7.22;3.20;;;;;;;10.73;46.27;101304.09;4419270;32;20067;-69
2021/11/05 00:54:17;;;;;;;11.60;3.30;;;;;;;10.81;46.36;101314.03;4421092;32;20130;-69
2021/11/05 00:56:44;;;;;;;6.82;2.92;;;;;;;10.78;46.18;101312.09;4423858;32;20443;-69
2021/11/05 00:59:10;;;;;;;7.87;3.12;;;;;;;10.80;46.37;101312.44;4419798;32;20438;-69
2021/11/05 01:01:35;;;;;;;6.05;2.70;;;;;;;10.73;46.42;101323.00;4423699;32;20069;-68
2021/11/05 01:04:02;;;;;;;8.25;2.58;;;;;;;10.73;46.52;101317.38;4424141;32;20359;-69
2021/11/05 01:06:27;;;;;;;7.55;2.72;;;;;;;10.78;46.24;101314.09;4423222;32;20101;-69
2021/11/05 01:08:53;;;;;;;5.20;2.17;;;;;;;10.79;46.25;101319.28;4424971;32;20243;-69
2021/11/05 01:11:19;;;;;;;8.95;3.00;;;;;;;10.75;46.33;101314.94;4425228;32;20104;-69
2021/11/05 01:13:46;;;;;;;7.70;3.33;;;;;;;10.76;46.55;101320.16;4423686;32;20079;-69
2021/11/05 01:16:12;;;;;;;4.20;2.42;;;;;;;10.77;46.46;101310.47;4423801;32;20091;-69
2021/11/05 01:18:38;;;;;;;6.85;2.42;;;;;;;10.83;46.44;101311.56;4421412;32;20435;-69
2021/11/05 01:21:03;;;;;;;5.55;2.30;;;;;;;10.86;46.45;101321.22;4422814;32;20068;-69
2021/11/05 01:23:29;;;;;;;4.30;1.65;;;;;;;10.70;46.71;101324.66;4422790;32;20038;-69
2021/11/05 01:25:55;;;;;;;3.95;1.55;;;;;;;10.58;46.82;101324.47;4422985;32;20054;-69
2021/11/05 01:28:21;;;;;;;4.12;1.87;;;;;;;10.59;46.66;101323.25;4421743;32;20031;-69
2021/11/05 01:30:46;;;;;;;4.68;1.80;;;;;;;10.51;46.84;101321.72;4422413;32;20111;-69
2021/11/05 01:33:12;;;;;;;4.15;1.83;;;;;;;10.76;46.07;101319.34;4425097;32;20495;-69
2021/11/05 01:35:40;;;;;;;5.47;2.00;;;;;;;10.57;46.62;101320.03;4423482;32;20087;-69
2021/11/05 01:38:08;;;;;;;6.62;2.28;;;;;;;10.79;46.38;101318.50;4421713;32;20089;-69
2021/11/05 01:40:36;;;;;;;7.05;1.92;;;;;;;10.78;46.21;101316.91;4423517;32;20203;-69
2021/11/05 01:43:03;;;;;;;5.80;1.90;;;;;;;10.70;46.31;101310.59;4424094;32;20038;-69
2021/11/05 01:45:30;;;;;;;3.00;1.77;;;;;;;10.71;46.37;101314.22;4421363;32;20496;-69
2021/11/05 01:47:57;;;;;;;4.87;1.70;;;;;;;10.76;46.26;101316.53;4421924;32;20050;-69
2021/11/05 01:50:22;;;;;;;6.12;1.65;;;;;;;10.62;46.29;101314.75;4423685;32;20097;-69
2021/11/05 01:52:50;;;;;;;5.40;1.50;;;;;;;10.71;46.18;101322.66;4421779;32;20076;-69
2021/11/05 01:55:16;;;;;;;5.82;1.60;;;;;;;10.72;46.41;101324.25;4424948;32;20068;-69
2021/11/05 01:57:43;;;;;;;4.50;1.60;;;;;;;10.69;46.30;101316.62;4421720;32;20058;-69
2021/11/05 02:00:11;;;;;;;3.15;1.48;;;;;;;10.83;46.26;101325.66;4424654;32;20029;-69
2021/11/05 02:02:38;;;;;;;3.72;1.60;;;;;;;10.82;46.40;101318.44;4423504;32;20062;-69
2021/11/05 02:05:04;;;;;;;3.72;1.73;;;;;;;10.78;46.38;101322.53;4425105;32;20045;-69
2021/11/05 02:07:35;;;;;;;5.15;1.65;;;;;;;10.69;46.80;101319.47;4424723;32;20091;-68
2021/11/05 02:10:04;;;;;;;5.43;1.35;;;;;;;10.83;46.63;101327.69;4421440;32;20124;-68
2021/11/05 02:12:30;;;;;;;4.60;1.80;;;;;;;10.77;46.63;101327.34;4427319;32;20100;-68
2021/11/05 02:14:58;;;;;;;4.62;2.08;;;;;;;10.55;47.01;101319.69;4423527;32;20479;-69
2021/11/05 02:17:24;;;;;;;9.13;2.60;;;;;;;10.79;46.67;101318.50;4423112;32;20118;-68
2021/11/05 02:19:51;;;;;;;12.40;2.15;;;;;;;10.62;46.75;101316.75;4420721;32;20080;-68
2021/11/05 02:22:17;;;;;;;5.75;2.25;;;;;;;10.72;46.84;101335.50;4426685;32;20081;-69
2021/11/05 02:24:43;;;;;;;5.65;1.90;;;;;;;10.59;46.64;101329.66;4422442;32;20109;-69
2021/11/05 02:27:09;;;;;;;5.00;1.75;;;;;;;10.64;46.79;101334.81;4425377;32;20135;-69
2021/11/05 02:29:35;;;;;;;4.07;1.60;;;;;;;10.74;46.79;101333.84;4419163;32;20099;-69
2021/11/05 02:32:04;;;;;;;3.95;1.73;;;;;;;10.64;46.66;101339.63;4423331;32;20082;-69
2021/11/05 02:34:31;;;;;;;4.78;1.27;;;;;;;10.78;46.71;101337.41;4426564;32;20188;-69
2021/11/05 02:37:02;;;;;;;2.65;1.05;;;;;;;10.61;46.78;101335.66;4421430;32;20485;-69
2021/11/05 02:39:28;;;;;;;2.45;1.17;;;;;;;10.74;46.87;101347.91;4421179;32;20077;-69
2021/11/05 02:41:54;;;;;;;3.60;1.42;;;;;;;10.50;47.05;101346.28;4424005;32;20557;-68
2021/11/05 02:44:20;;;;;;;2.45;1.10;;;;;;;10.44;47.03;101349.97;4421328;32;20045;-69
2021/11/05 02:46:46;;;;;;;3.72;1.15;;;;;;;10.43;46.97;101345.59;4425000;32;20021;-69
2021/11/05 02:49:15;;;;;;;5.75;1.67;;;;;;;10.36;46.92;101349.28;4421468;32;20080;-69
2021/11/05 02:51:45;;;;;;;4.62;1.37;;;;;;;10.30;46.98;101344.53;4420751;32;21598;-69
2021/11/05 02:54:13;;;;;;;5.30;1.70;;;;;;;10.65;46.58;101358.13;4423572;32;20619;-69
2021/11/05 02:56:39;;;;;;;4.68;1.62;;;;;;;10.49;46.71;101353.13;4419718;32;20076;-69
2021/11/05 02:59:05;;;;;;;10.57;1.83;;;;;;;10.38;46.71;101352.47;4424239;32;20152;-69
2021/11/05 03:01:33;;;;;;;5.65;1.33;;;;;;;10.33;46.98;101361.38;4423950;32;20099;-69
2021/11/05 03:04:01;;;;;;;3.53;1.20;;;;;;;10.44;46.84;101359.22;4422450;32;20050;-69
2021/11/05 03:06:33;;;;;;;3.45;1.00;;;;;;;10.53;46.59;101361.50;4421910;32;20081;-69
2021/11/05 03:08:59;;;;;;;2.75;0.80;;;;;;;10.57;46.51;101362.25;4424685;32;20180;-69
2021/11/05 03:11:24;;;;;;;2.40;0.93;;;;;;;10.17;46.70;101355.56;4419890;32;20088;-69
2021/11/05 03:13:51;;;;;;;4.12;1.12;;;;;;;10.21;46.97;101352.72;4422514;32;20371;-69
2021/11/05 03:16:17;;;;;;;3.58;0.93;;;;;;;10.48;46.60;101348.72;4423596;32;20029;-69
2021/11/05 03:18:44;;;;;;;3.37;1.08;;;;;;;10.28;46.57;101353.38;4421520;32;20149;-69
2021/11/05 03:21:10;;;;;;;2.37;1.02;;;;;;;10.29;46.77;101345.75;4422521;32;20658;-69
2021/11/05 03:23:36;;;;;;;2.60;1.00;;;;;;;10.28;47.07;101349.81;4418279;32;20088;-69
2021/11/05 03:26:02;;;;;;;3.37;0.82;;;;;;;10.30;47.14;101350.16;4420981;32;20431;-68
2021/11/05 03:28:28;;;;;;;2.03;0.90;;;;;;;10.18;47.30;101351.53;4419278;32;20067;-68
2021/11/05 03:30:54;;;;;;;2.95;0.93;;;;;;;10.24;47.14;101349.84;4424944;32;20050;-68
2021/11/05 03:33:20;;;;;;;3.67;1.25;;;;;;;10.25;47.05;101356.28;4422720;32;20080;-68
2021/11/05 03:35:45;;;;;;;3.65;0.90;;;;;;;10.25;47.05;101354.25;4423495;32;20133;-69
2021/11/05 03:38:11;;;;;;;2.28;1.02;;;;;;;10.37;47.02;101359.31;4420216;32;20446;-69
2021/11/05 03:40:37;;;;;;;2.67;1.10;;;;;;;10.40;47.14;101360.50;4422118;32;20089;-69
2021/11/05 03:43:03;;;;;;;2.10;0.85;;;;;;;10.36;47.06;101365.34;4420474;32;20153;-69
2021/11/05 03:45:29;;;;;;;2.33;0.95;;;;;;;10.41;46.99;101362.06;4420433;32;20128;-68
2021/11/05 03:47:55;;;;;;;2.45;0.88;;;;;;;10.47;46.80;101371.66;4423548;32;20045;-68
2021/11/05 03:50:21;;;;;;;2.55;1.20;;;;;;;10.31;46.87;101369.44;4420127;32;20368;-69
2021/11/05 03:52:47;;;;;;;2.17;1.05;;;;;;;10.12;47.47;101369.31;4423029;32;20419;-69
2021/11/05 03:55:13;;;;;;;1.58;1.00;;;;;;;10.23;46.91;101372.75;4422827;32;20090;-69
2021/11/05 03:57:39;;;;;;;2.70;1.00;;;;;;;10.14;47.16;101376.09;4421631;32;20085;-68
2021/11/05 04:00:07;;;;;;;1.10;0.70;;;;;;;10.19;47.07;101367.19;4421346;32;20080;-68
2021/11/05 04:02:33;;;;;;;2.67;1.02;;;;;;;10.40;46.58;101363.31;4421153;32;20112;-68
2021/11/05 04:04:58;;;;;;;3.42;1.12;;;;;;;10.20;46.92;101374.41;4420240;32;20101;-68
2021/11/05 04:07:24;;;;;;;1.40;0.70;;;;;;;10.16;47.04;101378.47;4419232;32;20107;-68
2021/11/05 04:09:50;;;;;;;6.90;1.05;;;;;;;10.30;46.74;101376.28;4421599;32;20102;-68
2021/11/05 04:12:15;;;;;;;4.37;0.90;;;;;;;10.28;46.85;101373.09;4419338;32;20046;-68
2021/11/05 04:14:41;;;;;;;3.22;1.25;;;;;;;10.26;47.15;101377.53;4420646;32;20098;-68
2021/11/05 04:17:08;;;;;;;7.20;1.75;;;;;;;10.20;47.21;101377.22;4421392;32;20451;-68
2021/11/05 04:19:34;;;;;;;2.20;0.98;;;;;;;10.18;47.06;101376.06;4422138;32;20045;-68
2021/11/05 04:22:00;;;;;;;2.65;1.00;;;;;;;10.28;46.97;101378.72;4422050;32;20583;-68
2021/11/05 04:24:25;;;;;;;3.60;1.33;;;;;;;10.17;47.26;101382.87;4420712;32;20034;-68
2021/11/05 04:26:51;;;;;;;2.78;0.90;;;;;;;10.16;47.27;101379.28;4421257;32;20081;-68
2021/11/05 04:29:17;;;;;;;2.80;0.90;;;;;;;10.02;47.62;101379.41;4421274;32;20608;-68
2021/11/05 04:31:44;;;;;;;2.58;1.10;;;;;;;10.21;46.71;101392.87;4421794;32;20150;-68
2021/11/05 04:34:11;;;;;;;4.97;1.25;;;;;;;10.24;47.00;101385.63;4423740;32;20080;-68
2021/11/05 04:36:37;;;;;;;3.33;1.30;;;;;;;10.08;47.08;101383.41;4426039;32;20075;-68
2021/11/05 04:39:04;;;;;;;4.62;1.40;;;;;;;10.20;47.00;101387.66;4420470;32;20105;-69
2021/11/05 04:41:29;;;;;;;4.65;1.15;;;;;;;10.26;46.93;101391.62;4420623;32;20096;-69
2021/11/05 04:43:55;;;;;;;3.62;1.00;;;;;;;10.13;47.33;101391.38;4420163;32;20101;-69
2021/11/05 04:46:21;;;;;;;5.40;1.30;;;;;;;10.06;47.27;101399.84;4419860;32;20507;-69
2021/11/05 04:48:48;;;;;;;2.42;1.10;;;;;;;10.03;47.48;101400.69;4422497;32;20537;-69
2021/11/05 04:51:13;;;;;;;7.30;1.12;;;;;;;10.24;47.08;101402.50;4419020;32;20133;-69
2021/11/05 04:53:39;;;;;;;4.10;1.50;;;;;;;10.32;46.85;101413.25;4422477;32;20060;-69
2021/11/05 04:56:05;;;;;;;2.80;1.17;;;;;;;9.97;47.32;101420.03;4420955;32;20042;-69
2021/11/05 04:58:32;;;;;;;2.25;1.10;;;;;;;10.12;47.23;101420.69;4421239;32;20447;-69
2021/11/05 05:00:58;;;;;;;7.68;1.45;;;;;;;10.21;47.06;101423.81;4423079;32;20065;-69
2021/11/05 05:03:23;;;;;;;3.58;1.40;;;;;;;10.30;46.41;101420.50;4419006;32;20109;-69
2021/11/05 05:05:49;;;;;;;1.50;0.80;;;;;;;10.28;46.57;101429.34;4416995;32;20611;-69
2021/11/05 05:08:15;;;;;;;4.00;1.20;;;;;;;10.33;46.57;101425.28;4421339;32;20046;-69
2021/11/05 05:10:41;;;;;;;3.47;1.37;;;;;;;10.28;46.64;101428.56;4422299;32;20080;-68
2021/11/05 05:13:08;;;;;;;3.37;1.58;;;;;;;10.32;46.56;101437.75;4422712;32;20105;-68
2021/11/05 05:15:34;;;;;;;3.05;1.27;;;;;;;10.19;46.94;101436.72;4420654;32;20041;-68
2021/11/05 05:17:59;;;;;;;3.95;1.65;;;;;;;10.25;46.61;101435.84;4419903;32;20050;-68
2021/11/05 05:20:25;;;;;;;4.45;1.83;;;;;;;10.30;46.67;101424.09;4423283;32;20077;-69
2021/11/05 05:22:51;;;;;;;3.45;1.27;;;;;;;10.35;46.65;101420.03;4421851;32;20505;-68
2021/11/05 05:25:17;;;;;;;5.10;1.50;;;;;;;10.07;46.88;101436.03;4422168;32;20132;-68
2021/11/05 05:27:45;;;;;;;2.60;1.15;;;;;;;10.37;46.77;101435.28;4424188;32;20077;-68
2021/11/05 05:30:13;;;;;;;3.35;1.20;;;;;;;10.45;46.69;101435.97;4422019;32;20030;-68
2021/11/05 05:32:40;;;;;;;4.47;1.52;;;;;;;10.36;46.75;101433.69;4420501;32;20098;-68
2021/11/05 05:35:06;;;;;;;3.22;1.23;;;;;;;10.48;46.61;101426.69;4420042;32;20128;-68
2021/11/05 05:37:33;;;;;;;5.68;1.40;;;;;;;10.19;47.12;101429.09;4420735;32;20108;-68
2021/11/05 05:39:58;;;;;;;7.40;1.50;;;;;;;10.23;47.02;101426.22;4421585;32;20089;-68
2021/11/05 05:42:24;;;;;;;8.18;1.60;;;;;;;10.31;46.65;101422.88;4424882;32;20119;-68
2021/11/05 05:44:50;;;;;;;3.45;1.92;;;;;;;10.26;46.66;101420.56;4419729;32;20128;-68
2021/11/05 05:47:16;;;;;;;4.90;1.48;;;;;;;10.22;46.82;101424.63;4423579;32;20426;-68
2021/11/05 05:49:42;;;;;;;3.87;2.17;;;;;;;10.19;46.74;101419.84;4423573;32;20085;-68
2021/11/05 05:52:07;;;;;;;4.05;2.00;;;;;;;10.17;46.94;101420.25;4427664;32;20452;-68
2021/11/05 05:54:33;;;;;;;4.85;2.53;;;;;;;10.03;46.98;101424.00;4424282;32;20136;-68
2021/11/05 05:56:59;;;;;;;6.53;2.03;;;;;;;10.23;46.83;101429.81;4420734;32;20102;-68
2021/11/05 05:59:26;;;;;;;4.97;1.70;;;;;;;10.21;46.78;101435.06;4422220;32;20094;-68
2021/11/05 06:01:52;;;;;;;3.65;1.20;;;;;;;10.39;46.96;101446.91;4422206;32;20038;-68
2021/11/05 06:04:19;;;;;;;8.52;1.70;;;;;;;10.13;47.15;101439.19;4425188;32;20124;-68
2021/11/05 06:06:45;;;;;;;7.10;3.20;;;;;;;10.20;46.96;101443.91;4421725;32;20042;-68
2021/11/05 06:09:10;;;;;;;8.30;2.70;;;;;;;10.22;46.75;101441.50;4421781;32;20149;-68
2021/11/05 06:11:36;;;;;;;7.55;2.30;;;;;;;10.33;46.54;101447.78;4422991;32;20094;-68
2021/11/05 06:14:02;;;;;;;8.05;1.73;;;;;;;10.36;46.69;101450.56;4422207;32;20072;-68
2021/11/05 06:16:28;;;;;;;2.50;1.02;;;;;;;10.35;46.70;101451.78;4424871;32;20512;-68
2021/11/05 06:18:54;;;;;;;4.78;1.45;;;;;;;10.43;46.58;101456.09;4420277;32;20511;-68
2021/11/05 06:21:24;;;;;;;4.43;1.40;;;;;;;10.47;46.73;101447.63;4424230;32;20068;-68
2021/11/05 06:23:51;;;;;;;8.65;1.65;;;;;;;10.71;46.37;101454.97;4421545;32;20026;-68
2021/11/05 06:26:17;;;;;;;3.42;1.27;;;;;;;11.04;46.11;101449.25;4422826;32;20337;-68
2021/11/05 06:28:43;;;;;;;5.47;2.00;;;;;;;11.07;45.60;101454.03;4421697;32;20146;-68
2021/11/05 06:31:09;;;;;;;2.37;1.20;;;;;;;11.37;45.20;101456.78;4423116;32;20451;-68
2021/11/05 06:33:35;;;;;;;5.60;1.73;;;;;;;11.30;44.92;101462.56;4423452;32;20097;-68
2021/11/05 06:36:00;;;;;;;8.27;2.15;;;;;;;11.48;44.63;101462.25;4423727;32;20337;-68
2021/11/05 06:38:27;;;;;;;4.37;1.90;;;;;;;11.56;44.33;101447.63;4423455;32;20095;-68
2021/11/05 06:41:13;;;;;;;4.53;2.40;;;;;;;11.74;44.31;101455.78;4424501;32;20057;-68
2021/11/05 06:43:57;;;;;;;7.47;2.03;;;;;;;11.58;44.64;101458.47;4423887;32;20102;-68
2021/11/05 06:46:23;;;;;;;5.12;1.83;;;;;;;11.80;44.13;101452.06;4422564;32;20553;-68
2021/11/05 06:49:08;;;;;;;9.57;2.40;;;;;;;11.93;44.09;101467.13;4418718;32;20102;-68
2021/11/05 06:51:33;;;;;;;5.12;1.75;;;;;;;11.73;44.11;101460.63;4425243;32;20184;-68
2021/11/05 06:53:59;;;;;;;6.43;1.65;;;;;;;12.04;44.02;101467.75;4423308;32;20155;-68
2021/11/05 06:56:25;;;;;;;6.87;2.00;;;;;;;11.66;44.60;101463.59;4421672;32;20383;-68
2021/11/05 06:58:52;;;;;;;10.40;1.70;;;;;;;11.90;44.30;101467.19;4424441;32;20059;-68
2021/11/05 07:01:18;;;;;;;6.62;1.75;;;;;;;12.02;44.27;101470.19;4421353;32;20137;-68
2021/11/05 07:03:43;;;;;;;8.15;2.40;;;;;;;12.01;44.35;101476.28;4422597;32;20046;-68
2021/11/05 07:06:10;;;;;;;5.32;2.45;;;;;;;12.00;44.35;101478.28;4420577;32;20074;-68
2021/11/05 07:08:35;;;;;;;4.78;2.10;;;;;;;11.93;44.58;101463.50;4422102;32;20068;-70
2021/11/05 07:11:02;;;;;;;13.02;3.20;;;;;;;11.62;45.05;101470.50;4423249;32;20046;-68
2021/11/05 07:13:28;;;;;;;5.75;2.15;;;;;;;11.93;44.80;101469.16;4425720;32;20158;-69
2021/11/05 07:15:55;;;;;;;10.88;2.45;;;;;;;11.57;45.77;101468.16;4422758;32;20057;-69
2021/11/05 07:18:21;;;;;;;8.00;2.00;;;;;;;11.87;45.12;101466.03;4420435;32;20037;-69
2021/11/05 07:20:47;;;;;;;8.57;2.35;;;;;;;11.59;45.65;101469.31;4420047;32;20025;-68
2021/11/05 07:23:13;;;;;;;8.40;2.65;;;;;;;11.77;45.38;101474.69;4423836;32;20090;-69
2021/11/05 07:25:40;;;;;;;12.37;2.60;;;;;;;11.82;45.56;101474.19;4419449;32;20133;-69
2021/11/05 07:28:05;;;;;;;7.82;2.70;;;;;;;11.94;45.35;101479.22;4420224;32;20544;-69
2021/11/05 07:30:31;;;;;;;10.52;2.40;;;;;;;11.81;45.28;101469.75;4419136;32;20115;-69
2021/11/05 07:32:58;;;;;;;10.50;3.22;;;;;;;11.83;45.33;101475.78;4421563;32;20521;-69
2021/11/05 07:35:24;;;;;;;9.23;3.33;;;;;;;11.99;45.44;101476.69;4416783;32;20488;-69
2021/11/05 07:37:51;;;;;;;8.70;2.85;;;;;;;11.98;45.47;101477.13;4417038;32;20111;-69
2021/11/05 07:40:18;;;;;;;9.48;3.53;;;;;;;12.21;45.17;101476.31;4417651;32;20060;-69
2021/11/05 07:42:46;;;;;;;8.25;2.83;;;;;;;12.31;45.31;101478.94;4422133;32;20138;-69
2021/11/05 07:45:14;;;;;;;10.82;2.92;;;;;;;12.15;45.99;101492.16;4418656;32;20061;-69
2021/11/05 07:47:43;;;;;;;7.12;2.62;;;;;;;12.33;45.53;101484.16;4416122;32;20110;-69
2021/11/05 07:50:10;;;;;;;6.95;3.20;;;;;;;12.32;45.82;101496.66;4412029;32;20042;-69
2021/11/05 07:52:36;;;;;;;8.20;3.20;;;;;;;12.49;45.45;101489.88;4417040;32;21170;-69
2021/11/05 07:55:04;;;;;;;8.43;3.30;;;;;;;12.56;45.61;101495.38;4415171;32;20137;-68
2021/11/05 07:57:29;;;;;;;7.22;3.55;;;;;;;12.66;45.66;101500.00;4400703;32;20439;-68
2021/11/05 07:59:56;;;;;;;10.43;4.15;;;;;;;12.72;45.72;101495.44;4400853;32;20154;-68
2021/11/05 08:02:22;;;;;;;9.90;4.28;;;;;;;12.82;45.54;101502.91;4414927;32;20102;-69
2021/11/05 08:04:47;;;;;;;16.23;4.43;;;;;;;12.90;45.99;101504.34;4409909;32;20133;-68
2021/11/05 08:07:32;;;;;;;12.85;4.10;;;;;;;13.02;45.69;101504.50;4412569;32;20144;-68
2021/11/05 08:10:20;;;;;;;10.52;4.47;;;;;;;13.18;45.83;101509.41;4415316;32;20087;-69
2021/11/05 08:12:48;;;;;;;21.48;6.70;;;;;;;13.36;45.52;101510.59;4411657;32;21190;-69
2021/11/05 08:15:15;;;;;;;21.50;6.18;;;;;;;13.66;45.32;101504.59;4411256;32;20081;-69
2021/11/05 08:17:43;;;;;;;10.95;4.80;;;;;;;13.57;45.13;101509.28;4412841;32;20396;-69
2021/11/05 08:20:11;;;;;;;9.35;4.43;;;;;;;13.82;45.28;101510.28;4414926;32;20120;-68
2021/11/05 08:22:38;;;;;;;10.13;4.35;;;;;;;14.11;44.80;101510.31;4415367;32;20098;-69
2021/11/05 08:25:04;;;;;;;18.27;5.00;;;;;;;14.53;44.37;101516.91;4410072;32;20092;-69
2021/11/05 08:27:30;;;;;;;11.15;5.07;;;;;;;14.72;43.87;101515.94;4410244;32;20097;-69
2021/11/05 08:29:56;;;;;;;14.70;4.43;;;;;;;15.12;43.45;101517.19;4413587;32;20142;-69
2021/11/05 08:32:22;;;;;;;9.13;4.28;;;;;;;15.65;41.84;101516.38;4404662;32;20156;-69
2021/11/05 08:34:48;;;;;;;18.35;5.18;;;;;;;16.30;41.44;101528.75;4413349;32;20560;-69
2021/11/05 08:37:14;;;;;;;16.00;4.97;;;;;;;16.50;40.64;101522.81;4409280;32;20292;-69
2021/11/05 08:39:39;;;;;;;26.12;6.70;;;;;;;17.15;39.74;101529.28;4410306;32;20109;-69
2021/11/05 08:42:06;;;;;;;22.80;7.57;;;;;;;17.69;38.90;101518.97;4416169;32;20071;-69
2021/11/05 08:44:32;;;;;;;11.15;5.53;;;;;;;18.12;38.15;101512.28;4411321;32;20700;-69
2021/11/05 08:46:59;;;;;;;16.37;5.50;;;;;;;18.50;37.28;101514.75;4412302;32;20061;-69
2021/11/05 08:49:27;;;;;;;14.87;6.05;;;;;;;18.65;36.65;101521.41;4415854;32;20068;-69
2021/11/05 08:51:54;;;;;;;25.88;9.52;;;;;;;18.73;36.94;101520.59;4418121;32;20042;-70
2021/11/05 08:54:20;;;;;;;15.50;6.60;;;;;;;19.21;36.79;101522.41;4417948;32;20058;-70
2021/11/05 08:56:45;;;;;;;13.65;7.93;;;;;;;19.24;36.12;101520.66;4414119;32;20112;-69
2021/11/05 08:59:14;;;;;;;19.85;6.70;;;;;;;19.31;36.94;101524.00;4412381;32;20104;-69
2021/11/05 09:01:40;;;;;;;17.35;6.25;;;;;;;19.86;35.59;101521.72;4416724;32;20130;-68
2021/11/05 09:04:07;;;;;;;15.35;6.65;;;;;;;19.99;36.16;101521.47;4414548;32;20077;-69
2021/11/05 09:06:34;;;;;;;18.48;7.65;;;;;;;20.26;35.61;101530.72;4411363;32;20084;-70
2021/11/05 09:09:00;;;;;;;18.60;7.15;;;;;;;20.39;35.37;101528.41;4413343;32;20154;-69
2021/11/05 09:11:28;;;;;;;21.15;7.18;;;;;;;20.55;34.72;101527.16;4414309;32;20395;-70
2021/11/05 09:13:55;;;;;;;26.98;7.93;;;;;;;20.70;35.16;101530.84;4412649;32;20129;-70
2021/11/05 09:16:22;;;;;;;22.73;8.15;;;;;;;20.91;34.84;101535.41;4412969;32;20104;-70
2021/11/05 09:18:48;;;;;;;25.62;7.28;;;;;;;20.65;34.89;101532.31;4415299;32;20156;-69
2021/11/05 09:21:15;;;;;;;23.83;7.22;;;;;;;20.93;34.50;101542.22;4417718;32;20096;-70
2021/11/05 09:23:41;;;;;;;19.90;6.95;;;;;;;21.06;34.85;101539.94;4418229;32;20171;-70
2021/11/05 09:26:08;;;;;;;22.02;6.30;;;;;;;21.31;34.73;101550.00;4412118;32;20101;-69
2021/11/05 09:28:35;;;;;;;16.37;6.82;;;;;;;21.13;35.31;101550.19;4411159;32;20153;-69
2021/11/05 09:31:03;;;;;;;28.15;8.75;;;;;;;21.30;35.34;101549.19;4418496;32;20132;-70
2021/11/05 09:33:30;;;;;;;20.27;6.87;;;;;;;21.10;35.88;101545.44;4415849;32;20050;-69
2021/11/05 09:35:56;;;;;;;20.92;6.85;;;;;;;20.76;36.86;101549.72;4418060;32;20664;-70
2021/11/05 09:38:22;;;;;;;16.05;6.10;;;;;;;20.67;37.15;101557.56;4410246;32;20057;-70
2021/11/05 09:40:51;;;;;;;15.07;6.20;;;;;;;20.73;37.18;101555.59;4414983;32;20157;-70
2021/11/05 09:43:19;;;;;;;2.08;1.25;;;;;;;20.89;37.85;101555.94;4418006;32;20398;-70
2021/11/05 09:45:45;;;;;;;1.20;0.55;;;;;;;21.28;38.67;101550.97;4417134;32;20834;-69
2021/11/05 09:48:13;;;;;;;1.80;0.75;;;;;;;21.45;39.01;101560.66;4413325;32;20792;-70
2021/11/05 09:50:39;;;;;;;0.98;0.55;;;;;;;22.06;38.28;101561.69;4417135;32;20175;-69
2021/11/05 09:53:06;;;;;;;0.50;0.35;;;;;;;22.54;37.36;101560.84;4412971;32;20592;-69
2021/11/05 09:55:34;;;;;;;0.70;0.10;;;;;;;22.74;36.86;101563.69;4414493;32;20116;-70
2021/11/05 09:58:00;;;;;;;0.40;0.30;;;;;;;23.42;35.67;101569.69;4413175;32;20053;-69
2021/11/05 10:00:28;;;;;;;0.37;0.20;;;;;;;23.76;34.92;101579.37;4416217;32;20124;-70
2021/11/05 10:02:54;;;;;;;0.57;0.20;;;;;;;24.33;33.95;101580.09;4415900;32;20143;-69
2021/11/05 10:05:20;;;;;;;0.98;0.10;;;;;;;24.35;33.54;101571.72;4414992;32;20100;-69
2021/11/05 10:07:51;;;;;;;1.15;0.20;;;;;;;24.43;33.28;101581.44;4415849;32;20425;-69
2021/11/05 10:13:04;;;;;;;0.93;0.30;;;;;;;23.38;34.87;101587.13;3967802;32;15122254;-67
2021/11/05 10:15:48;;;;;;;0.45;0.32;;;;;;;23.65;34.75;101577.19;4416521;32;20461;-70
2021/11/05 10:21:13;;;;;;;1.70;0.62;;;;;;;23.57;35.41;101586.78;3970666;32;15022502;-69
2021/11/05 10:23:41;;;;;;;2.90;0.40;;;;;;;23.57;35.41;101586.78;4426573;32;20098;-69
2021/11/05 10:26:18;;;;;;;1.15;0.30;;;;;;;23.03;36.12;101595.09;4428025;32;20172;-69
2021/11/05 10:28:44;;;;;;;0.60;0.20;;;;;;;22.87;36.25;101600.63;4422406;32;20171;-69
2021/11/05 10:31:11;;;;;;;1.02;0.40;;;;;;;22.71;36.49;101598.34;4424124;32;20161;-69
2021/11/05 10:33:40;;;;;;;0.50;0.40;;;;;;;22.53;36.74;101615.84;4425569;32;20095;-70
2021/11/05 10:36:10;;;;;;;2.33;0.43;;;;;;;22.40;37.24;101610.41;4410395;32;20127;-70
2021/11/05 10:38:39;;;;;;;0.90;0.25;;;;;;;22.41;37.27;101616.94;4424405;32;20060;-69
2021/11/05 10:41:08;;;;;;;2.47;0.35;;;;;;;22.47;36.95;101623.53;4425339;32;20077;-71
2021/11/05 10:51:41;;;;;;;3.40;1.08;;;;;;;23.44;35.76;101616.72;3966166;32;15025201;-70
2021/11/05 10:54:07;;;;;;;1.77;0.68;;;;;;;23.19;35.76;101614.59;4416942;32;20107;-70
2021/11/05 10:56:32;;;;;;;3.62;0.60;;;;;;;23.45;35.57;101615.44;4415662;32;20132;-70
2021/11/05 10:59:02;;;;;;;1.23;0.40;;;;;;;24.01;34.98;101613.84;4417344;32;20037;-70
2021/11/05 11:01:34;;;;;;;2.05;0.68;;;;;;;23.87;35.08;101623.37;4421342;32;20080;-70
2021/11/05 11:04:05;;;;;;;0.70;0.40;;;;;;;23.32;36.20;101606.41;4418860;32;20073;-70
2021/11/05 11:09:15;;;;;;;10.23;1.08;;;;;;;23.75;36.09;101600.81;3976283;32;15022147;-70
2021/11/05 11:11:45;;;;;;;5.22;0.57;;;;;;;23.75;36.09;101600.81;4427134;32;20108;-70
2021/11/05 11:14:17;;;;;;;2.62;0.50;;;;;;;23.50;36.13;101599.50;4430053;32;20145;-70
2021/11/05 11:19:24;;;;;;;1.87;0.60;;;;;;;26.20;31.91;101611.50;3969607;32;15023306;-70
2021/11/05 11:24:32;;;;;;;1.25;0.60;;;;;;;26.27;31.22;101616.72;3988606;31;15016133;-67
2021/11/05 11:27:00;;;;;;;2.28;0.90;;;;;;;26.27;31.22;101616.72;4441414;32;20289;-69
2021/11/05 11:29:27;;;;;;;1.65;0.35;;;;;;;25.87;31.40;101602.84;4442974;32;20125;-70
2021/11/05 11:31:54;;;;;;;1.33;0.50;;;;;;;24.28;33.19;101615.34;4445823;32;20430;-69
2021/11/05 11:34:21;;;;;;;1.75;0.57;;;;;;;24.02;34.05;101606.78;4445073;32;20456;-70
2021/11/05 11:36:50;;;;;;;3.00;1.40;;;;;;;23.93;34.20;101612.69;4442196;32;20036;-68
2021/11/05 11:39:18;;;;;;;2.45;0.70;;;;;;;23.72;34.68;101608.38;4443171;32;20459;-68
2021/11/05 11:41:46;;;;;;;4.28;1.60;;;;;;;23.51;34.89;101610.50;4440760;32;20081;-68
2021/11/05 11:44:15;;;;;;;1.70;0.70;;;;;;;24.10;34.39;101610.78;4442579;32;20084;-67